BEL75Y LGKO-EBBR
Flight info
| Callsign | BEL75Y |
|---|---|
| Flight time | N/A |
| Altitude | 36000 |
| Route | LARKI UL609 MES DCT DISOR DCT LONTA UL608 DOLEV DCT YUYUH DCT KOMAR DCT KUSIB DCT GORPA DCT DOL DCT NIPEL DCT ERKIR DCT BABEG DCT IDOVI Z104 GESLO N852 LNO |
| Aircraft | A20N/M-DE3FGHIJ1LORVWY/HB1G1 |
Departure
| Time | N/A |
|---|---|
| Airport | Kos International Airport "Ippokratis" (LGKO) |
Arrival
| Time | 2026-05-06 20:34 |
|---|---|
| Airport | Brussels Airport (EBBR) |
| Time | Latitude | Longitude | Altitude | Speed | Heading |
|---|---|---|---|---|---|
| 2026-05-06 19:47 | 48.55973 | 9.90855 | 37928 ft | 436 kts | 301° |
| 2026-05-06 19:48 | 48.59405 | 9.83481 | 37848 ft | 437 kts | 301° |
| 2026-05-06 19:48 | 48.62835 | 9.76087 | 37905 ft | 436 kts | 301° |
| 2026-05-06 19:49 | 48.66359 | 9.68615 | 37861 ft | 437 kts | 304° |
| 2026-05-06 19:49 | 48.70306 | 9.61649 | 37855 ft | 440 kts | 309° |
| 2026-05-06 19:50 | 48.74528 | 9.54849 | 37846 ft | 440 kts | 310° |
| 2026-05-06 19:50 | 48.78685 | 9.48139 | 37846 ft | 441 kts | 309° |
| 2026-05-06 19:51 | 48.82874 | 9.41337 | 37841 ft | 441 kts | 309° |
| 2026-05-06 19:51 | 48.86961 | 9.34674 | 37845 ft | 442 kts | 309° |
| 2026-05-06 19:52 | 48.91116 | 9.27856 | 37850 ft | 441 kts | 309° |
| 2026-05-06 19:52 | 48.95200 | 9.21142 | 37845 ft | 441 kts | 309° |
| 2026-05-06 19:53 | 49.02994 | 9.08309 | 37849 ft | 441 kts | 309° |
| 2026-05-06 19:54 | 49.07129 | 9.01476 | 37841 ft | 441 kts | 309° |
| 2026-05-06 19:54 | 49.11235 | 8.94683 | 37842 ft | 441 kts | 309° |
| 2026-05-06 19:55 | 49.15334 | 8.87925 | 37845 ft | 441 kts | 309° |
| 2026-05-06 19:55 | 49.19302 | 8.81345 | 37852 ft | 441 kts | 309° |
| 2026-05-06 19:56 | 49.23448 | 8.74433 | 37852 ft | 441 kts | 309° |
| 2026-05-06 19:57 | 49.31739 | 8.60543 | 37842 ft | 440 kts | 309° |
| 2026-05-06 19:57 | 49.35510 | 8.54195 | 37846 ft | 439 kts | 309° |
| 2026-05-06 19:58 | 49.39794 | 8.46963 | 37854 ft | 440 kts | 309° |
| 2026-05-06 19:58 | 49.43890 | 8.40032 | 37850 ft | 440 kts | 309° |
| 2026-05-06 19:59 | 49.47882 | 8.33253 | 37850 ft | 440 kts | 309° |
| 2026-05-06 19:59 | 49.51896 | 8.26398 | 37850 ft | 440 kts | 309° |
| 2026-05-06 20:00 | 49.55965 | 8.19445 | 37850 ft | 439 kts | 309° |
| 2026-05-06 20:00 | 49.59952 | 8.12622 | 37851 ft | 439 kts | 309° |
| 2026-05-06 20:01 | 49.64034 | 8.05619 | 37845 ft | 439 kts | 309° |
| 2026-05-06 20:01 | 49.68121 | 7.98587 | 37853 ft | 439 kts | 309° |
| 2026-05-06 20:02 | 49.72202 | 7.91550 | 37846 ft | 440 kts | 309° |
| 2026-05-06 20:02 | 49.76286 | 7.84489 | 37846 ft | 439 kts | 309° |
| 2026-05-06 20:03 | 49.80338 | 7.77463 | 37846 ft | 438 kts | 309° |
| 2026-05-06 20:03 | 49.84381 | 7.70431 | 37843 ft | 438 kts | 309° |
| 2026-05-06 20:04 | 49.88428 | 7.63371 | 37857 ft | 438 kts | 309° |
| 2026-05-06 20:04 | 49.92480 | 7.56282 | 37850 ft | 437 kts | 309° |
| 2026-05-06 20:05 | 49.96507 | 7.49209 | 37862 ft | 437 kts | 309° |
| 2026-05-06 20:05 | 50.00543 | 7.42096 | 37863 ft | 437 kts | 309° |
| 2026-05-06 20:06 | 50.04549 | 7.34994 | 37857 ft | 437 kts | 308° |
| 2026-05-06 20:06 | 50.08188 | 7.27393 | 37538 ft | 433 kts | 300° |
| 2026-05-06 20:07 | 50.09717 | 7.23497 | 37329 ft | 429 kts | 297° |
| 2026-05-06 20:07 | 50.11077 | 7.19585 | 37122 ft | 426 kts | 295° |
| 2026-05-06 20:07 | 50.12213 | 7.16185 | 36942 ft | 424 kts | 295° |
| 2026-05-06 20:07 | 50.13651 | 7.11827 | 36714 ft | 421 kts | 295° |
| 2026-05-06 20:08 | 50.14934 | 7.07922 | 36502 ft | 421 kts | 295° |
| 2026-05-06 20:08 | 50.16259 | 7.03882 | 36274 ft | 420 kts | 295° |
| 2026-05-06 20:08 | 50.17595 | 6.99805 | 35904 ft | 421 kts | 295° |
| 2026-05-06 20:08 | 50.18918 | 6.95759 | 35446 ft | 422 kts | 295° |
| 2026-05-06 20:09 | 50.20261 | 6.91649 | 34889 ft | 425 kts | 295° |
| 2026-05-06 20:09 | 50.21386 | 6.88202 | 34396 ft | 428 kts | 295° |
| 2026-05-06 20:09 | 50.22739 | 6.84045 | 33819 ft | 433 kts | 295° |
| 2026-05-06 20:09 | 50.24098 | 6.79866 | 33170 ft | 438 kts | 295° |
| 2026-05-06 20:10 | 50.25418 | 6.75801 | 32496 ft | 443 kts | 295° |
| 2026-05-06 20:10 | 50.26817 | 6.71490 | 31727 ft | 446 kts | 295° |
| 2026-05-06 20:10 | 50.27967 | 6.67939 | 31112 ft | 447 kts | 295° |
| 2026-05-06 20:10 | 50.29375 | 6.63586 | 30287 ft | 447 kts | 295° |
| 2026-05-06 20:11 | 50.30770 | 6.59261 | 29579 ft | 445 kts | 295° |
| 2026-05-06 20:11 | 50.32172 | 6.54909 | 28882 ft | 442 kts | 295° |
| 2026-05-06 20:11 | 50.33535 | 6.50668 | 28394 ft | 434 kts | 295° |
| 2026-05-06 20:11 | 50.34868 | 6.46512 | 28033 ft | 426 kts | 296° |
| 2026-05-06 20:12 | 50.36209 | 6.42320 | 27040 ft | 431 kts | 296° |
| 2026-05-06 20:12 | 50.37559 | 6.38088 | 25642 ft | 443 kts | 296° |
| 2026-05-06 20:12 | 50.38814 | 6.34154 | 24808 ft | 443 kts | 295° |
| 2026-05-06 20:12 | 50.40181 | 6.29855 | 24195 ft | 437 kts | 295° |
| 2026-05-06 20:13 | 50.41479 | 6.25763 | 23681 ft | 430 kts | 295° |
| 2026-05-06 20:13 | 50.42600 | 6.22225 | 23247 ft | 424 kts | 295° |
| 2026-05-06 20:13 | 50.43905 | 6.18102 | 22731 ft | 418 kts | 295° |
| 2026-05-06 20:13 | 50.45154 | 6.14153 | 22235 ft | 412 kts | 295° |
| 2026-05-06 20:14 | 50.46420 | 6.10141 | 21733 ft | 407 kts | 296° |
| 2026-05-06 20:14 | 50.47483 | 6.06742 | 21349 ft | 401 kts | 294° |
| 2026-05-06 20:14 | 50.48148 | 6.03779 | 21140 ft | 393 kts | 280° |
| 2026-05-06 20:14 | 50.48282 | 5.98744 | 20851 ft | 391 kts | 269° |
| 2026-05-06 20:15 | 50.48202 | 5.94492 | 20595 ft | 390 kts | 268° |
| 2026-05-06 20:15 | 50.48128 | 5.90444 | 20352 ft | 389 kts | 269° |
| 2026-05-06 20:15 | 50.48070 | 5.86136 | 20090 ft | 387 kts | 269° |
| 2026-05-06 20:15 | 50.48027 | 5.81878 | 19810 ft | 386 kts | 269° |
| 2026-05-06 20:16 | 50.47996 | 5.77710 | 19501 ft | 384 kts | 270° |
| 2026-05-06 20:16 | 50.47971 | 5.73500 | 19083 ft | 382 kts | 270° |
| 2026-05-06 20:16 | 50.47949 | 5.69365 | 18607 ft | 379 kts | 270° |
| 2026-05-06 20:16 | 50.47927 | 5.65192 | 18152 ft | 376 kts | 270° |
| 2026-05-06 20:17 | 50.47904 | 5.61123 | 17669 ft | 373 kts | 270° |
| 2026-05-06 20:17 | 50.47881 | 5.57036 | 17191 ft | 370 kts | 270° |
| 2026-05-06 20:17 | 50.47857 | 5.53026 | 16702 ft | 368 kts | 270° |
| 2026-05-06 20:17 | 50.47833 | 5.49045 | 16242 ft | 365 kts | 271° |
| 2026-05-06 20:18 | 50.47808 | 5.45061 | 15759 ft | 363 kts | 271° |
| 2026-05-06 20:18 | 50.47781 | 5.41111 | 15293 ft | 360 kts | 271° |
| 2026-05-06 20:18 | 50.47754 | 5.37189 | 14841 ft | 357 kts | 271° |
| 2026-05-06 20:18 | 50.47729 | 5.33754 | 14425 ft | 355 kts | 270° |
| 2026-05-06 20:19 | 50.47702 | 5.30114 | 13987 ft | 353 kts | 271° |
| 2026-05-06 20:19 | 50.47678 | 5.26991 | 13612 ft | 351 kts | 271° |
| 2026-05-06 20:19 | 50.47647 | 5.22933 | 13118 ft | 349 kts | 270° |
| 2026-05-06 20:19 | 50.47622 | 5.19834 | 12752 ft | 347 kts | 270° |
| 2026-05-06 20:20 | 50.47590 | 5.16083 | 12286 ft | 346 kts | 270° |
| 2026-05-06 20:20 | 50.47557 | 5.12341 | 11815 ft | 344 kts | 270° |
| 2026-05-06 20:20 | 50.47521 | 5.08595 | 11357 ft | 342 kts | 270° |
| 2026-05-06 20:20 | 50.47484 | 5.04833 | 10883 ft | 341 kts | 270° |
| 2026-05-06 20:21 | 50.47446 | 5.01168 | 10438 ft | 339 kts | 270° |
| 2026-05-06 20:21 | 50.47406 | 4.97488 | 10244 ft | 327 kts | 270° |
| 2026-05-06 20:21 | 50.47366 | 4.93986 | 10133 ft | 313 kts | 270° |
| 2026-05-06 20:21 | 50.47328 | 4.90680 | 10042 ft | 299 kts | 270° |
| 2026-05-06 20:22 | 50.47290 | 4.87489 | 9970 ft | 285 kts | 270° |
| 2026-05-06 20:22 | 50.47252 | 4.84392 | 9733 ft | 281 kts | 271° |
| 2026-05-06 20:22 | 50.47214 | 4.81294 | 9217 ft | 286 kts | 271° |
| 2026-05-06 20:22 | 50.47177 | 4.78172 | 8772 ft | 287 kts | 271° |
| 2026-05-06 20:23 | 50.47138 | 4.75057 | 8519 ft | 281 kts | 271° |
| 2026-05-06 20:23 | 50.47097 | 4.71997 | 8260 ft | 279 kts | 271° |
| 2026-05-06 20:23 | 50.47057 | 4.68951 | 8038 ft | 278 kts | 271° |
| 2026-05-06 20:23 | 50.47016 | 4.65925 | 7802 ft | 277 kts | 271° |
| 2026-05-06 20:24 | 50.46974 | 4.62875 | 7546 ft | 276 kts | 271° |
| 2026-05-06 20:24 | 50.46933 | 4.59887 | 7271 ft | 275 kts | 271° |
| 2026-05-06 20:24 | 50.46891 | 4.56870 | 6980 ft | 273 kts | 271° |
| 2026-05-06 20:24 | 50.46849 | 4.53916 | 6683 ft | 272 kts | 272° |
| 2026-05-06 20:25 | 50.47065 | 4.50997 | 6347 ft | 265 kts | 295° |
| 2026-05-06 20:25 | 50.48094 | 4.48705 | 6051 ft | 256 kts | 323° |
| 2026-05-06 20:25 | 50.49652 | 4.47445 | 5738 ft | 249 kts | 348° |
| 2026-05-06 20:25 | 50.51341 | 4.47023 | 5448 ft | 246 kts | 353° |
| 2026-05-06 20:26 | 50.53009 | 4.46648 | 5160 ft | 244 kts | 353° |
| 2026-05-06 20:26 | 50.54693 | 4.46258 | 4873 ft | 241 kts | 353° |
| 2026-05-06 20:26 | 50.56335 | 4.45868 | 4592 ft | 239 kts | 353° |
| 2026-05-06 20:26 | 50.57978 | 4.45470 | 4312 ft | 237 kts | 353° |
| 2026-05-06 20:27 | 50.59600 | 4.45076 | 4033 ft | 235 kts | 353° |
| 2026-05-06 20:27 | 50.61227 | 4.44676 | 3751 ft | 234 kts | 353° |
| 2026-05-06 20:27 | 50.62861 | 4.44275 | 3548 ft | 241 kts | 353° |
| 2026-05-06 20:27 | 50.64533 | 4.43867 | 3420 ft | 244 kts | 353° |
| 2026-05-06 20:28 | 50.66193 | 4.43458 | 3281 ft | 235 kts | 354° |
| 2026-05-06 20:28 | 50.67770 | 4.43069 | 3151 ft | 225 kts | 354° |
| 2026-05-06 20:28 | 50.69301 | 4.42691 | 3017 ft | 216 kts | 354° |
| 2026-05-06 20:28 | 50.70764 | 4.42458 | 2852 ft | 208 kts | 2° |
| 2026-05-06 20:29 | 50.72179 | 4.42621 | 2674 ft | 201 kts | 11° |
| 2026-05-06 20:29 | 50.73550 | 4.43038 | 2490 ft | 197 kts | 14° |
| 2026-05-06 20:29 | 50.74831 | 4.43516 | 2330 ft | 190 kts | 15° |
| 2026-05-06 20:29 | 50.76058 | 4.44005 | 2218 ft | 181 kts | 16° |
| 2026-05-06 20:30 | 50.77205 | 4.44469 | 2148 ft | 167 kts | 17° |
| 2026-05-06 20:30 | 50.79326 | 4.45328 | 1834 ft | 143 kts | 17° |
| 2026-05-06 20:30 | 50.80255 | 4.45705 | 1703 ft | 133 kts | 17° |
| 2026-05-06 20:31 | 50.81161 | 4.46074 | 1594 ft | 134 kts | 17° |
| 2026-05-06 20:31 | 50.82047 | 4.46433 | 1459 ft | 130 kts | 17° |
| 2026-05-06 20:31 | 50.82921 | 4.46788 | 1332 ft | 129 kts | 17° |
| 2026-05-06 20:31 | 50.83791 | 4.47142 | 1207 ft | 129 kts | 17° |
| 2026-05-06 20:32 | 50.84664 | 4.47497 | 1047 ft | 129 kts | 17° |
| 2026-05-06 20:32 | 50.85533 | 4.47850 | 873 ft | 128 kts | 16° |
| 2026-05-06 20:32 | 50.86400 | 4.48203 | 694 ft | 128 kts | 16° |
| 2026-05-06 20:32 | 50.87266 | 4.48551 | 507 ft | 127 kts | 16° |
| 2026-05-06 20:33 | 50.88121 | 4.48908 | 339 ft | 125 kts | 15° |
| 2026-05-06 20:33 | 50.88958 | 4.49249 | 206 ft | 124 kts | 15° |
| 2026-05-06 20:33 | 50.89666 | 4.49541 | 193 ft | 81 kts | 15° |
| 2026-05-06 20:33 | 50.90113 | 4.49723 | 193 ft | 57 kts | 15° |
| 2026-05-06 20:34 | 50.90473 | 4.49869 | 193 ft | 50 kts | 14° |
| 2026-05-06 20:34 | 50.90700 | 4.49930 | 193 ft | 28 kts | 360° |
| 2026-05-06 20:34 | 50.90854 | 4.49882 | 193 ft | 12 kts | 309° |
| 2026-05-06 20:34 | 50.90852 | 4.49787 | 193 ft | 9 kts | 244° |
| 2026-05-06 20:35 | 50.90822 | 4.49687 | 193 ft | 10 kts | 245° |
| 2026-05-06 20:35 | 50.90789 | 4.49571 | 193 ft | 12 kts | 246° |
| 2026-05-06 20:35 | 50.90753 | 4.49445 | 193 ft | 13 kts | 246° |
| 2026-05-06 20:35 | 50.90713 | 4.49308 | 193 ft | 14 kts | 246° |
| 2026-05-06 20:36 | 50.90670 | 4.49160 | 193 ft | 15 kts | 246° |
| 2026-05-06 20:36 | 50.90625 | 4.49004 | 193 ft | 15 kts | 246° |
| 2026-05-06 20:36 | 50.90587 | 4.48870 | 193 ft | 5 kts | 246° |
| 2026-05-06 20:36 | 50.90561 | 4.48855 | 193 ft | 5 kts | 158° |
| 2026-05-06 20:37 | 50.90523 | 4.48880 | 193 ft | 6 kts | 155° |
| 2026-05-06 20:37 | 50.90498 | 4.48899 | 193 ft | 0 kts | 155° |
| 2026-05-06 20:37 | 50.90497 | 4.48900 | 193 ft | 0 kts | 155° |